Time;durP1;ratioP1;P1;durP2;ratioP2;P2;SDS_P1;SDS_P2;PMS_P1;PMS_P2;Temp;Humidity;BMP_temperature;BMP_pressure;BME280_temperature;BME280_humidity;BME280_pressure;Samples;Min_cycle;Max_cycle;Signal;HPM_P1;HPM_P2
2023/05/18 00:01:45;;;;;;;14.63;3.63;;;;;;;9.54;81.29;101627.66;8351030;28;20120;-62
2023/05/18 00:05:48;;;;;;;15.50;4.05;;;;;;;9.21;84.33;101630.03;8353350;28;20075;-62
2023/05/18 00:09:48;;;;;;;15.40;4.70;;;;;;;8.97;85.76;101624.44;8340979;28;20049;-62
2023/05/18 00:13:48;;;;;;;16.02;3.88;;;;;;;8.96;86.17;101621.84;8335595;28;20044;-61
2023/05/18 00:17:49;;;;;;;13.70;4.40;;;;;;;8.91;86.78;101629.41;8341912;28;20070;-61
2023/05/18 00:21:51;;;;;;;13.43;4.35;;;;;;;8.88;87.41;101626.91;8341871;28;20049;-62
2023/05/18 00:25:51;;;;;;;11.98;4.53;;;;;;;8.82;88.33;101619.22;8342626;28;20070;-61
2023/05/18 00:29:52;;;;;;;12.13;4.15;;;;;;;8.84;87.96;101633.47;8334875;28;20042;-61
2023/05/18 00:33:52;;;;;;;10.25;4.50;;;;;;;8.44;92.08;101623.56;8325306;28;20129;-61
2023/05/18 00:37:53;;;;;;;16.15;5.57;;;;;;;8.23;96.18;101624.97;8330158;28;20040;-61
2023/05/18 00:41:53;;;;;;;15.35;5.18;;;;;;;8.09;97.36;101636.59;8340935;28;20048;-62
2023/05/18 00:45:54;;;;;;;12.77;5.03;;;;;;;8.04;96.20;101631.50;8343026;28;20029;-62
2023/05/18 00:49:54;;;;;;;10.40;5.32;;;;;;;7.88;96.71;101622.69;8373546;28;20526;-61
2023/05/18 00:53:56;;;;;;;12.68;4.95;;;;;;;7.96;98.58;101623.03;8335910;28;20128;-60
2023/05/18 00:58:01;;;;;;;16.95;5.15;;;;;;;7.94;98.64;101614.19;8339088;28;20064;-61
2023/05/18 01:02:02;;;;;;;16.88;5.47;;;;;;;8.21;96.96;101618.78;8313816;28;20059;-60
2023/05/18 01:06:04;;;;;;;18.92;5.63;;;;;;;8.27;96.98;101621.13;8324917;28;20500;-61
2023/05/18 01:10:05;;;;;;;17.85;6.80;;;;;;;7.87;94.68;101623.63;8336880;28;20040;-61
2023/05/18 01:14:35;;;;;;;13.93;4.88;;;;;;;7.76;95.68;101618.06;8339653;28;20120;-61
2023/05/18 01:18:44;;;;;;;14.30;5.30;;;;;;;7.67;96.33;101621.31;8325947;28;20033;-60
2023/05/18 01:23:14;;;;;;;13.82;5.10;;;;;;;7.68;96.20;101622.16;8331259;28;20041;-60
2023/05/18 01:27:16;;;;;;;10.52;5.38;;;;;;;7.36;98.40;101616.09;8340196;28;20033;-60
2023/05/18 01:31:18;;;;;;;13.77;5.85;;;;;;;7.54;98.15;101617.63;8342439;28;20041;-60
2023/05/18 01:35:19;;;;;;;11.60;5.68;;;;;;;7.30;99.12;101618.28;8339942;28;20503;-60
2023/05/18 01:39:20;;;;;;;15.20;5.35;;;;;;;7.25;98.46;101618.56;8340066;28;20088;-60
2023/05/18 01:43:27;;;;;;;14.10;5.88;;;;;;;7.19;99.91;101629.69;8339879;28;20049;-60
2023/05/18 01:47:30;;;;;;;14.82;5.90;;;;;;;7.34;98.86;101618.00;8340567;28;20547;-60
2023/05/18 01:51:35;;;;;;;12.30;5.53;;;;;;;7.11;99.45;101614.97;8340279;28;20048;-60
2023/05/18 01:55:36;;;;;;;18.02;6.15;;;;;;;7.32;98.01;101625.28;8339382;28;20056;-60
2023/05/18 01:59:38;;;;;;;16.77;5.53;;;;;;;7.02;100.00;101611.00;8345270;28;20041;-61
2023/05/18 02:03:38;;;;;;;13.40;5.50;;;;;;;6.90;100.00;101616.25;8355478;28;20128;-61
2023/05/18 02:07:42;;;;;;;13.73;5.00;;;;;;;7.10;99.62;101619.47;8351703;28;20038;-60
2023/05/18 02:11:43;;;;;;;;;;;;;;;6.79;99.64;101616.88;8339515;28;20041;-60
2023/05/18 02:15:43;;;;;;;16.08;5.38;;;;;;;6.63;100.00;101612.47;8339725;28;20372;-60
2023/05/18 02:19:46;;;;;;;10.60;5.38;;;;;;;6.88;100.00;101619.03;8337464;28;20470;-61
2023/05/18 02:23:46;;;;;;;11.57;5.15;;;;;;;6.62;100.00;101621.50;8339227;28;20038;-60
2023/05/18 02:27:47;;;;;;;18.77;6.03;;;;;;;6.71;100.00;101621.81;8340815;28;20504;-60
2023/05/18 02:31:48;;;;;;;14.05;5.88;;;;;;;6.72;100.00;101620.88;8329893;28;20412;-60
2023/05/18 02:35:51;;;;;;;14.85;5.32;;;;;;;6.59;100.00;101621.69;8324037;28;20095;-60
2023/05/18 02:39:51;;;;;;;13.05;6.30;;;;;;;6.74;100.00;101627.03;8335270;28;20042;-61
2023/05/18 02:43:52;;;;;;;11.35;5.35;;;;;;;6.68;100.00;101619.31;8339328;28;20306;-61
2023/05/18 02:47:53;;;;;;;14.73;5.60;;;;;;;6.79;100.00;101624.06;8346434;28;20038;-60
2023/05/18 02:51:54;;;;;;;10.32;5.03;;;;;;;6.69;100.00;101631.81;8339351;28;20045;-61
2023/05/18 02:55:56;;;;;;;13.10;5.80;;;;;;;6.79;98.80;101630.31;8339859;28;20033;-61
2023/05/18 03:00:08;;;;;;;14.75;5.95;;;;;;;6.74;100.00;101627.03;8320637;28;20249;-60
2023/05/18 03:04:09;;;;;;;23.45;6.85;;;;;;;6.89;100.00;101627.97;8323593;28;20116;-60
2023/05/18 03:08:14;;;;;;;17.38;6.28;;;;;;;6.56;100.00;101627.25;8328726;28;20029;-60
2023/05/18 03:12:15;;;;;;;12.77;6.07;;;;;;;6.40;100.00;101631.75;8339368;28;20127;-59
2023/05/18 03:16:15;;;;;;;16.67;5.88;;;;;;;6.27;100.00;101636.94;8339567;28;20045;-60
2023/05/18 03:20:16;;;;;;;17.75;6.05;;;;;;;6.37;100.00;101629.25;8339401;28;20504;-60
2023/05/18 03:24:17;;;;;;;20.05;6.70;;;;;;;6.44;100.00;101623.44;8339103;28;20042;-61
2023/05/18 03:28:21;;;;;;;;;;;;;;;6.54;100.00;101646.13;8340182;28;20048;-60
2023/05/18 03:32:24;;;;;;;17.00;6.38;;;;;;;6.63;100.00;101639.34;8355202;28;20392;-59
2023/05/18 03:36:26;;;;;;;20.95;6.18;;;;;;;6.63;100.00;101634.84;8352293;28;20487;-60
2023/05/18 03:40:28;;;;;;;14.00;6.32;;;;;;;6.43;100.00;101637.81;8339081;28;20447;-60
2023/05/18 03:44:28;;;;;;;10.40;6.60;;;;;;;6.47;100.00;101634.00;8339694;28;20090;-60
2023/05/18 03:48:29;;;;;;;12.68;6.68;;;;;;;6.43;100.00;101634.28;8339504;28;20037;-60
2023/05/18 03:52:32;;;;;;;15.10;6.75;;;;;;;6.55;100.00;101634.41;8340284;28;20128;-60
2023/05/18 03:56:33;;;;;;;17.38;6.50;;;;;;;6.57;100.00;101635.22;8338795;28;20053;-60
2023/05/18 04:00:34;;;;;;;19.75;7.28;;;;;;;6.26;100.00;101637.91;8334612;28;20044;-60
2023/05/18 04:04:44;;;;;;;15.67;6.83;;;;;;;6.16;100.00;101644.72;8328159;28;20408;-60
2023/05/18 04:08:45;;;;;;;20.70;7.70;;;;;;;6.46;100.00;101637.63;8337698;28;20282;-61
2023/05/18 04:12:45;;;;;;;12.93;7.55;;;;;;;6.65;100.00;101646.38;8344879;28;20524;-62
2023/05/18 04:16:46;;;;;;;15.10;7.55;;;;;;;6.71;100.00;101637.94;8344755;28;20071;-62
2023/05/18 04:20:48;;;;;;;11.50;5.85;;;;;;;6.81;100.00;101644.53;8345026;28;20037;-62
2023/05/18 04:24:49;;;;;;;17.27;6.13;;;;;;;7.14;100.00;101655.97;8344542;28;20045;-60
2023/05/18 04:28:50;;;;;;;8.55;6.07;;;;;;;7.25;100.00;101650.84;8346837;28;20045;-60
2023/05/18 04:32:50;;;;;;;11.60;6.07;;;;;;;7.42;98.08;101658.78;8349909;28;20114;-61
2023/05/18 04:36:54;;;;;;;13.10;6.10;;;;;;;7.56;99.32;101653.41;8344410;28;20103;-61
2023/05/18 04:40:55;;;;;;;15.85;5.85;;;;;;;7.88;96.64;101663.06;8343605;28;20087;-61
2023/05/18 04:44:57;;;;;;;16.73;6.60;;;;;;;8.15;96.19;101664.97;8344223;28;20044;-61
2023/05/18 04:49:00;;;;;;;15.85;6.18;;;;;;;8.30;95.61;101664.03;8343631;28;20049;-61
2023/05/18 04:53:07;;;;;;;12.82;5.43;;;;;;;8.48;94.97;101666.38;8343301;28;20060;-61
2023/05/18 04:57:08;;;;;;;19.90;6.03;;;;;;;8.73;94.46;101671.06;8342867;28;20408;-61
2023/05/18 05:01:09;;;;;;;15.10;5.57;;;;;;;8.83;94.03;101675.75;8328709;28;20097;-61
2023/05/18 05:05:09;;;;;;;26.02;5.72;;;;;;;8.76;93.78;101665.47;8342763;28;20401;-61
2023/05/18 05:09:12;;;;;;;11.80;5.57;;;;;;;8.86;95.48;101663.88;8334241;28;20144;-61
2023/05/18 05:13:13;;;;;;;12.25;5.65;;;;;;;8.89;94.57;101675.34;8348812;28;20041;-61
2023/05/18 05:17:14;;;;;;;15.07;6.20;;;;;;;9.33;96.09;101670.50;8340117;28;20037;-61
2023/05/18 05:21:15;;;;;;;10.43;6.65;;;;;;;9.72;92.50;101678.56;8341858;28;20029;-60
2023/05/18 05:25:15;;;;;;;12.02;6.13;;;;;;;9.94;90.14;101672.50;8348721;28;20024;-60
2023/05/18 05:29:16;;;;;;;18.90;8.90;;;;;;;10.14;89.68;101684.63;8339068;28;20037;-60
2023/05/18 05:33:17;;;;;;;14.88;7.60;;;;;;;10.37;87.28;101682.00;8332909;28;20048;-61
2023/05/18 05:37:18;;;;;;;16.60;6.22;;;;;;;10.50;87.24;101666.66;8337718;28;20049;-61
2023/05/18 05:41:19;;;;;;;23.05;5.90;;;;;;;10.55;83.93;101669.84;8309590;28;20029;-61
2023/05/18 05:45:20;;;;;;;21.80;6.53;;;;;;;10.59;83.74;101671.38;8322272;28;20122;-61
2023/05/18 05:49:25;;;;;;;12.50;5.43;;;;;;;10.93;82.24;101676.00;8342333;28;20567;-62
2023/05/18 05:53:28;;;;;;;15.20;5.63;;;;;;;11.13;81.66;101667.25;8341158;28;20368;-61
2023/05/18 05:57:29;;;;;;;13.63;5.35;;;;;;;11.29;81.26;101680.50;8341672;28;20037;-61
2023/05/18 06:01:31;;;;;;;13.95;4.97;;;;;;;11.53;78.36;101674.03;8328949;28;20079;-61
2023/05/18 06:05:31;;;;;;;18.02;4.68;;;;;;;11.55;77.54;101690.16;8324297;28;20106;-60
2023/05/18 06:09:32;;;;;;;15.80;5.20;;;;;;;12.04;78.10;101687.25;8336658;28;20041;-61
2023/05/18 06:13:33;;;;;;;14.20;4.85;;;;;;;11.96;76.30;101684.28;8339504;28;20170;-61
2023/05/18 06:17:35;;;;;;;15.88;5.22;;;;;;;12.29;75.80;101687.03;8341993;28;20037;-61
2023/05/18 06:21:36;;;;;;;9.00;4.68;;;;;;;12.34;75.19;101684.78;8340490;28;20125;-60
2023/05/18 06:25:37;;;;;;;11.60;3.83;;;;;;;12.50;72.50;101679.88;8333737;28;20070;-61
2023/05/18 06:29:55;;;;;;;13.25;3.63;;;;;;;12.62;72.64;101685.16;8343978;28;20050;-61
2023/05/18 06:34:16;;;;;;;17.23;3.75;;;;;;;12.82;69.15;101692.53;8350878;28;20056;-61
2023/05/18 06:38:16;;;;;;;12.57;4.25;;;;;;;12.89;70.46;101698.28;8360324;28;20040;-61
2023/05/18 06:42:17;;;;;;;11.77;3.47;;;;;;;13.04;68.99;101703.38;8339638;28;20067;-61
2023/05/18 06:46:36;;;;;;;10.45;3.20;;;;;;;13.18;70.89;101694.91;8340242;28;20065;-61
2023/05/18 06:50:45;;;;;;;15.13;5.00;;;;;;;13.08;69.65;101698.53;8339510;28;20079;-61
2023/05/18 06:54:45;;;;;;;16.70;5.13;;;;;;;13.37;70.86;101700.53;8335287;28;20045;-61
2023/05/18 06:58:46;;;;;;;13.40;4.90;;;;;;;13.48;68.90;101696.91;8320983;28;20037;-61
2023/05/18 07:02:47;;;;;;;11.25;4.13;;;;;;;14.26;72.48;101700.91;8333543;28;20063;-57
2023/05/18 07:06:48;;;;;;;10.40;5.07;;;;;;;13.79;67.13;101698.72;8323446;28;20052;-61
2023/05/18 07:10:49;;;;;;;13.85;4.10;;;;;;;13.78;66.66;101694.25;8329420;28;20075;-60
2023/05/18 07:14:49;;;;;;;11.43;4.07;;;;;;;13.64;66.89;101697.31;8339580;28;20041;-60
2023/05/18 07:18:50;;;;;;;14.82;4.63;;;;;;;14.00;67.10;101699.56;8334591;28;20042;-60
2023/05/18 07:22:50;;;;;;;16.33;4.05;;;;;;;14.03;64.10;101698.44;8335128;28;20044;-60
2023/05/18 07:26:51;;;;;;;17.02;3.53;;;;;;;14.19;63.15;101705.13;8328323;28;20432;-60
2023/05/18 07:30:51;;;;;;;8.90;2.90;;;;;;;14.19;63.05;101702.41;8353107;28;20041;-60
2023/05/18 07:34:52;;;;;;;10.13;3.67;;;;;;;14.23;62.00;101701.16;8375045;28;20029;-60
2023/05/18 07:38:53;;;;;;;10.93;3.42;;;;;;;14.55;62.84;101696.44;8343895;28;20593;-60
2023/05/18 07:42:54;;;;;;;5.07;3.17;;;;;;;14.73;61.82;101689.34;8338097;28;20095;-60
2023/05/18 07:46:56;;;;;;;8.57;2.92;;;;;;;14.87;62.66;101680.78;8371471;28;20394;-60
2023/05/18 07:50:57;;;;;;;13.10;2.83;;;;;;;14.89;62.90;101678.81;8386211;28;20040;-60
2023/05/18 07:54:57;;;;;;;12.80;3.50;;;;;;;15.16;62.33;101676.25;8327792;28;20705;-60
2023/05/18 07:58:58;;;;;;;12.43;4.40;;;;;;;14.84;60.89;101674.75;8317817;28;20067;-60
2023/05/18 08:02:59;;;;;;;11.77;3.13;;;;;;;15.25;60.51;101680.84;8359468;28;20036;-60
2023/05/18 08:07:00;;;;;;;15.35;4.20;;;;;;;15.64;60.21;101681.72;8392641;28;20032;-60
2023/05/18 08:11:01;;;;;;;8.27;3.08;;;;;;;15.66;59.49;101677.88;8336898;28;20079;-60
2023/05/18 08:15:02;;;;;;;15.55;3.95;;;;;;;15.65;60.68;101683.47;8335114;28;20052;-60
2023/05/18 08:19:03;;;;;;;11.57;3.92;;;;;;;16.16;60.88;101673.00;8344497;28;20032;-60
2023/05/18 08:23:03;;;;;;;14.65;3.28;;;;;;;16.20;58.21;101662.69;8350795;28;20045;-60
2023/05/18 08:27:05;;;;;;;11.88;2.85;;;;;;;15.76;56.51;101674.28;8344598;28;20036;-60
2023/05/18 08:31:06;;;;;;;11.95;3.33;;;;;;;16.07;56.89;101663.00;8330663;28;20038;-60
2023/05/18 08:35:08;;;;;;;12.00;2.97;;;;;;;16.01;54.15;101663.56;8339872;28;20060;-60
2023/05/18 08:39:09;;;;;;;11.18;2.78;;;;;;;16.04;56.54;101666.00;8323327;28;20037;-59
2023/05/18 08:43:19;;;;;;;14.15;3.22;;;;;;;15.95;57.37;101655.97;8313647;28;20064;-60
2023/05/18 08:47:24;;;;;;;11.85;2.97;;;;;;;16.18;54.85;101651.03;8342464;28;20175;-60
2023/05/18 08:51:28;;;;;;;7.63;2.30;;;;;;;16.31;54.37;101662.50;8333287;28;20116;-60
2023/05/18 08:55:29;;;;;;;9.90;3.43;;;;;;;16.12;54.02;101665.28;8347204;28;20056;-60
2023/05/18 08:59:32;;;;;;;10.18;2.90;;;;;;;16.40;56.06;101658.84;8340460;28;20048;-59
2023/05/18 09:03:33;;;;;;;10.23;3.20;;;;;;;16.77;54.70;101648.81;8290175;28;20042;-60
2023/05/18 09:07:34;;;;;;;10.77;2.70;;;;;;;16.41;56.69;101649.66;8300331;28;20075;-60
2023/05/18 09:11:36;;;;;;;11.52;3.08;;;;;;;16.39;55.25;101657.13;8335825;28;20049;-60
2023/05/18 09:15:37;;;;;;;11.98;2.72;;;;;;;16.44;55.07;101661.16;8338055;28;20040;-60
2023/05/18 09:19:37;;;;;;;9.18;2.85;;;;;;;15.95;55.32;101657.88;8336736;28;20040;-60
2023/05/18 09:23:39;;;;;;;11.27;3.25;;;;;;;16.56;55.56;101646.31;8334896;28;20061;-60
2023/05/18 09:27:41;;;;;;;9.85;3.08;;;;;;;16.60;53.67;101655.06;8339426;28;20045;-60
2023/05/18 09:31:41;;;;;;;13.30;3.10;;;;;;;17.09;56.62;101646.41;8352241;28;20096;-60
2023/05/18 09:35:44;;;;;;;9.27;3.22;;;;;;;17.57;56.49;101653.22;8354864;28;20087;-60
2023/05/18 09:39:58;;;;;;;8.93;3.17;;;;;;;17.34;55.83;101651.09;8332492;28;20080;-60
2023/05/18 09:44:03;;;;;;;14.93;2.92;;;;;;;17.60;53.12;101652.06;8321876;28;20312;-60
2023/05/18 09:48:06;;;;;;;10.45;3.28;;;;;;;17.21;53.34;101656.97;8320448;28;20049;-60
2023/05/18 09:52:08;;;;;;;12.50;2.90;;;;;;;18.41;51.34;101648.00;8321938;28;20044;-59
2023/05/18 09:56:10;;;;;;;14.60;2.95;;;;;;;20.08;48.76;101648.50;8335421;28;20037;-59
2023/05/18 10:00:14;;;;;;;8.13;2.55;;;;;;;21.65;45.47;101648.09;8345188;28;20532;-60
2023/05/18 10:04:15;;;;;;;10.77;2.90;;;;;;;18.96;49.66;101636.44;8350525;28;20056;-60
2023/05/18 10:08:16;;;;;;;15.07;3.50;;;;;;;19.32;48.25;101623.31;8339497;28;20499;-60
2023/05/18 10:12:19;;;;;;;7.57;2.47;;;;;;;20.15;48.77;101633.06;8337882;28;20411;-60
2023/05/18 10:16:22;;;;;;;12.10;3.03;;;;;;;20.57;47.56;101629.00;8338919;28;20396;-60
2023/05/18 10:20:25;;;;;;;8.77;3.15;;;;;;;19.30;47.86;101626.22;8339129;28;20041;-60
2023/05/18 10:24:27;;;;;;;11.43;3.30;;;;;;;21.09;45.53;101618.25;8306813;28;20054;-60
2023/05/18 10:28:32;;;;;;;10.55;2.92;;;;;;;22.79;43.98;101616.41;8306942;28;20116;-60
2023/05/18 10:32:35;;;;;;;11.88;2.65;;;;;;;23.79;43.02;101609.88;8322549;28;20041;-60
2023/05/18 10:36:36;;;;;;;8.10;2.72;;;;;;;24.28;43.29;101614.28;8322769;28;20029;-61
2023/05/18 10:40:38;;;;;;;6.93;2.97;;;;;;;23.79;42.54;101601.56;8338808;28;20123;-60
2023/05/18 10:44:39;;;;;;;10.48;2.88;;;;;;;23.78;43.96;101602.63;8339302;28;20044;-61
2023/05/18 10:48:41;;;;;;;12.23;3.45;;;;;;;24.89;43.81;101604.22;8338600;28;20044;-60
2023/05/18 10:52:44;;;;;;;6.47;2.45;;;;;;;24.32;43.83;101601.78;8338892;28;20048;-60
2023/05/18 10:56:49;;;;;;;11.88;3.00;;;;;;;23.70;43.43;101591.72;8340794;28;20083;-60
2023/05/18 11:00:53;;;;;;;10.43;2.58;;;;;;;23.82;42.06;101599.25;8346585;28;20041;-59
2023/05/18 11:04:55;;;;;;;8.20;2.47;;;;;;;24.23;42.77;101596.59;8355043;28;20384;-59
2023/05/18 11:08:57;;;;;;;7.47;2.33;;;;;;;23.56;43.91;101587.13;8345698;28;20214;-60
2023/05/18 11:13:00;;;;;;;9.60;2.75;;;;;;;23.74;41.94;101580.06;8369353;28;20048;-59
2023/05/18 11:17:22;;;;;;;11.65;2.58;;;;;;;22.20;43.10;101587.16;8333465;28;20415;-60
2023/05/18 11:25:53;;;;;;;7.20;2.58;;;;;;;23.48;42.12;101556.91;8354394;27;20487;-58
2023/05/18 11:29:53;;;;;;;6.00;2.45;;;;;;;24.72;42.31;101564.13;8349434;28;20059;-58
2023/05/18 11:33:55;;;;;;;9.20;2.40;;;;;;;25.28;40.48;101571.09;8350691;28;20029;-58
2023/05/18 11:38:06;;;;;;;11.05;2.95;;;;;;;25.30;40.17;101568.97;8350226;28;20406;-58
2023/05/18 11:42:10;;;;;;;7.22;2.55;;;;;;;23.83;40.80;101555.91;8380715;28;20130;-58
2023/05/18 11:46:17;;;;;;;8.27;2.70;;;;;;;21.83;44.53;101567.97;8380803;28;20060;-58
2023/05/18 11:50:17;;;;;;;9.05;2.60;;;;;;;23.25;42.31;101559.03;8382666;28;20036;-58
2023/05/18 11:54:18;;;;;;;6.57;2.38;;;;;;;23.96;42.56;101556.91;8383054;28;20248;-59
2023/05/18 11:58:19;;;;;;;8.32;2.67;;;;;;;22.83;42.53;101543.25;8382028;28;20060;-59
2023/05/18 12:02:25;;;;;;;9.85;2.38;;;;;;;22.36;44.34;101540.97;8382220;28;20052;-59
2023/05/18 12:06:27;;;;;;;11.45;2.97;;;;;;;20.44;46.02;101542.66;8382707;28;20475;-58
2023/05/18 12:10:28;;;;;;;10.02;2.75;;;;;;;19.76;47.02;101536.03;8380780;28;20064;-59
2023/05/18 12:14:30;;;;;;;8.20;2.35;;;;;;;19.20;48.35;101523.19;8379476;28;20132;-58
2023/05/18 12:18:33;;;;;;;10.98;2.95;;;;;;;18.95;47.91;101519.59;8376636;28;20133;-59
2023/05/18 12:22:34;;;;;;;8.52;2.20;;;;;;;19.18;48.69;101512.38;8377825;28;20047;-59
2023/05/18 12:26:35;;;;;;;6.95;3.05;;;;;;;19.08;50.28;101521.81;8377755;28;20072;-59
2023/05/18 12:30:35;;;;;;;9.30;2.53;;;;;;;19.10;50.53;101519.78;8378719;28;20120;-59
2023/05/18 12:34:37;;;;;;;6.60;2.72;;;;;;;19.31;51.53;101515.50;8370500;28;20036;-59
2023/05/18 12:38:38;;;;;;;11.77;2.67;;;;;;;19.38;51.24;101513.78;8356855;28;20071;-59
2023/05/18 12:42:38;;;;;;;9.02;2.88;;;;;;;19.26;50.75;101515.19;8357230;28;20033;-59
2023/05/18 12:46:42;;;;;;;9.43;2.88;;;;;;;18.91;49.53;101509.16;8355890;28;20036;-59
2023/05/18 12:50:46;;;;;;;11.38;3.25;;;;;;;18.82;49.27;101508.25;8356821;28;20043;-59
2023/05/18 12:54:49;;;;;;;;;;;;;;;18.93;49.38;101501.59;8357495;28;20037;-59
2023/05/18 12:58:58;;;;;;;9.13;2.80;;;;;;;19.16;49.92;101487.00;8356375;28;19916;-59
2023/05/18 13:03:09;;;;;;;13.50;3.58;;;;;;;19.18;50.63;101489.59;8356396;28;20333;-59
2023/05/18 13:07:11;;;;;;;11.45;3.08;;;;;;;19.90;53.98;101480.38;8356720;28;20045;-60
2023/05/18 13:11:14;;;;;;;10.75;2.88;;;;;;;19.80;49.24;101477.00;8356165;28;20400;-59
2023/05/18 13:15:17;;;;;;;12.30;2.60;;;;;;;19.24;49.69;101477.94;8356003;28;20087;-59
2023/05/18 13:19:19;;;;;;;12.38;3.55;;;;;;;19.15;51.21;101468.88;8355396;28;20053;-60
2023/05/18 13:23:22;;;;;;;10.70;3.45;;;;;;;18.87;50.97;101469.38;8356040;28;20191;-59
2023/05/18 13:27:22;;;;;;;9.82;3.42;;;;;;;19.29;51.95;101462.72;8354024;28;20044;-59
2023/05/18 13:31:23;;;;;;;17.52;3.67;;;;;;;19.24;51.30;101473.31;8354572;28;20037;-60
2023/05/18 13:35:24;;;;;;;11.23;3.22;;;;;;;19.05;51.77;101470.94;8356097;28;20139;-59
2023/05/18 13:39:25;;;;;;;14.38;3.92;;;;;;;18.89;51.80;101451.75;8355121;28;20037;-60
2023/05/18 13:43:25;;;;;;;9.10;3.50;;;;;;;19.17;53.16;101455.84;8355919;28;20039;-60
2023/05/18 13:47:25;;;;;;;9.90;2.60;;;;;;;19.36;51.81;101450.03;8353999;28;20410;-60
2023/05/18 13:51:26;;;;;;;8.00;2.90;;;;;;;18.77;53.15;101447.66;8354061;28;20071;-60
2023/05/18 13:55:26;;;;;;;10.10;3.03;;;;;;;19.16;54.40;101429.44;8354695;28;20120;-60
2023/05/18 13:59:27;;;;;;;9.45;3.22;;;;;;;18.99;52.97;101438.72;8354667;28;20071;-60
2023/05/18 14:03:28;;;;;;;9.45;3.47;;;;;;;19.02;53.07;101438.38;8354371;28;20426;-60
2023/05/18 14:07:29;;;;;;;11.82;3.95;;;;;;;19.00;52.95;101432.22;8354534;28;20110;-60
2023/05/18 14:11:33;;;;;;;10.85;3.40;;;;;;;18.86;53.42;101424.69;8354433;28;20454;-60
2023/05/18 14:15:33;;;;;;;9.57;2.67;;;;;;;19.28;53.38;101413.53;8354383;28;20085;-61
2023/05/18 14:19:34;;;;;;;10.73;2.58;;;;;;;19.20;53.19;101419.00;8351916;28;20137;-61
2023/05/18 14:23:35;;;;;;;11.77;3.42;;;;;;;19.25;54.24;101408.38;8352061;28;20388;-61
2023/05/18 14:27:35;;;;;;;9.75;3.40;;;;;;;18.97;52.67;101421.59;8354072;28;20049;-61
2023/05/18 14:31:36;;;;;;;9.90;2.83;;;;;;;18.90;54.09;101408.75;8353759;28;20102;-61
2023/05/18 14:35:36;;;;;;;10.48;3.00;;;;;;;19.15;53.17;101404.94;8351248;28;20041;-60
2023/05/18 14:39:37;;;;;;;7.07;3.17;;;;;;;19.31;54.05;101408.53;8344784;28;20041;-60
2023/05/18 14:43:38;;;;;;;10.60;3.45;;;;;;;19.32;54.37;101407.53;8352979;28;20491;-61
2023/05/18 14:47:38;;;;;;;10.55;3.38;;;;;;;19.33;53.70;101408.38;8353337;28;20525;-60
2023/05/18 14:51:39;;;;;;;10.35;3.30;;;;;;;19.22;53.39;101409.56;8353325;28;20455;-60
2023/05/18 14:55:39;;;;;;;14.57;3.97;;;;;;;19.09;52.84;101403.75;8352908;28;20064;-60
2023/05/18 14:59:42;;;;;;;14.43;3.67;;;;;;;19.48;53.52;101402.00;8344242;28;20080;-60
2023/05/18 15:03:42;;;;;;;10.35;2.80;;;;;;;19.54;54.04;101413.28;8348616;28;20033;-60
2023/05/18 15:07:42;;;;;;;8.73;2.97;;;;;;;19.42;52.78;101397.22;8352926;28;20040;-60
2023/05/18 15:11:43;;;;;;;17.73;3.25;;;;;;;19.23;53.67;101400.31;8350459;28;20123;-60
2023/05/18 15:15:44;;;;;;;14.23;3.13;;;;;;;19.32;52.72;101399.31;8351713;28;20557;-60
2023/05/18 15:19:45;;;;;;;13.68;2.80;;;;;;;19.45;53.47;101405.09;8351602;28;20033;-60
2023/05/18 15:23:46;;;;;;;11.98;3.10;;;;;;;19.28;52.44;101389.69;8338354;28;20044;-60
2023/05/18 15:27:47;;;;;;;10.70;2.97;;;;;;;19.28;53.71;101397.09;8322588;28;20125;-60
2023/05/18 15:31:49;;;;;;;10.20;3.17;;;;;;;19.08;52.77;101396.56;8347522;28;20040;-60
2023/05/18 15:35:50;;;;;;;9.55;2.90;;;;;;;19.30;53.38;101398.59;8352320;28;20499;-60
2023/05/18 15:39:50;;;;;;;9.07;2.72;;;;;;;19.52;52.99;101392.38;8352567;28;20102;-60
2023/05/18 15:43:51;;;;;;;11.73;2.88;;;;;;;19.39;52.94;101383.84;8351386;28;20098;-60
2023/05/18 15:47:51;;;;;;;7.53;2.88;;;;;;;19.41;53.88;101390.03;8347519;28;20512;-60
2023/05/18 15:51:52;;;;;;;9.80;2.80;;;;;;;19.47;53.81;101382.97;8332420;28;20044;-60
2023/05/18 15:55:54;;;;;;;11.80;3.38;;;;;;;19.49;54.16;101384.50;8352737;28;20124;-60
2023/05/18 15:59:55;;;;;;;11.30;3.03;;;;;;;19.28;53.67;101375.97;8351908;28;20040;-61
2023/05/18 16:03:55;;;;;;;9.15;2.50;;;;;;;19.30;53.14;101373.06;8353373;28;20040;-60
2023/05/18 16:07:56;;;;;;;11.15;2.67;;;;;;;19.35;53.45;101373.41;8353129;28;20055;-61
2023/05/18 16:11:56;;;;;;;10.10;3.20;;;;;;;19.30;53.53;101373.94;8354872;28;20037;-60
2023/05/18 16:15:57;;;;;;;10.40;2.65;;;;;;;19.16;53.17;101363.63;8358227;28;20123;-61
2023/05/18 16:19:57;;;;;;;10.20;3.28;;;;;;;19.39;54.10;101361.91;8358268;28;20043;-60
2023/05/18 16:23:58;;;;;;;8.70;2.70;;;;;;;19.30;53.03;101364.84;8356899;28;20037;-60
2023/05/18 16:27:58;;;;;;;11.27;3.08;;;;;;;19.41;53.70;101367.22;8357965;28;20040;-60
2023/05/18 16:31:59;;;;;;;11.35;3.17;;;;;;;19.32;53.55;101366.41;8354479;28;20044;-61
2023/05/18 16:36:00;;;;;;;11.20;2.58;;;;;;;19.19;53.65;101373.41;8337565;28;20064;-60
2023/05/18 16:40:02;;;;;;;12.18;2.97;;;;;;;19.15;54.32;101364.69;8334568;28;20068;-61
2023/05/18 16:44:02;;;;;;;13.43;3.65;;;;;;;19.15;54.40;101367.41;8337014;28;20041;-61
2023/05/18 16:48:03;;;;;;;10.90;3.10;;;;;;;19.17;55.38;101357.16;8349183;28;20148;-61
2023/05/18 16:52:04;;;;;;;11.52;3.00;;;;;;;19.21;55.19;101352.16;8348888;28;20373;-60
2023/05/18 16:56:04;;;;;;;8.25;2.63;;;;;;;19.17;55.37;101359.88;8350796;28;20040;-61
2023/05/18 17:00:08;;;;;;;7.43;2.30;;;;;;;19.08;55.34;101363.69;8351779;28;20037;-61
2023/05/18 17:04:09;;;;;;;8.15;2.58;;;;;;;19.05;55.32;101354.94;8351429;28;20051;-61
2023/05/18 17:08:09;;;;;;;14.63;2.88;;;;;;;19.08;55.05;101351.84;8351606;28;20439;-61
2023/05/18 17:12:11;;;;;;;9.02;2.85;;;;;;;19.00;55.10;101349.16;8350377;28;20492;-61
2023/05/18 17:16:12;;;;;;;10.18;3.08;;;;;;;18.88;55.38;101345.88;8329469;28;20554;-61
2023/05/18 17:20:13;;;;;;;11.60;2.50;;;;;;;18.90;55.26;101341.09;8345594;28;20035;-61
2023/05/18 17:24:13;;;;;;;8.27;2.53;;;;;;;18.84;55.61;101344.53;8337893;28;20033;-61
2023/05/18 17:28:17;;;;;;;11.43;2.50;;;;;;;18.65;55.56;101339.44;8351354;28;20102;-59
2023/05/18 17:32:18;;;;;;;10.13;2.87;;;;;;;18.65;55.55;101338.56;8350688;28;20119;-64
2023/05/18 17:36:18;;;;;;;6.68;2.40;;;;;;;18.49;55.93;101339.44;8351211;28;20037;-64
2023/05/18 17:40:19;;;;;;;12.40;2.42;;;;;;;18.47;55.95;101346.09;8357887;28;20725;-59
2023/05/18 17:44:19;;;;;;;8.75;2.53;;;;;;;18.35;56.55;101340.09;8340325;28;20045;-59
2023/05/18 17:48:20;;;;;;;7.10;2.17;;;;;;;18.40;56.47;101351.41;8327822;28;20479;-59
2023/05/18 17:52:20;;;;;;;9.63;2.10;;;;;;;18.27;56.49;101341.97;8351180;28;20130;-59
2023/05/18 17:56:21;;;;;;;8.32;2.00;;;;;;;18.20;56.69;101350.00;8347764;28;20041;-64
2023/05/18 18:00:21;;;;;;;9.95;2.83;;;;;;;18.09;56.73;101353.06;8360013;28;20506;-64
2023/05/18 18:04:23;;;;;;;6.78;1.90;;;;;;;18.02;56.85;101349.28;8347215;28;20045;-64
2023/05/18 18:08:24;;;;;;;12.20;2.13;;;;;;;17.95;57.01;101356.44;8341314;28;20407;-63
2023/05/18 18:12:24;;;;;;;7.05;2.22;;;;;;;17.88;57.10;101349.94;8357195;28;20051;-64
2023/05/18 18:16:25;;;;;;;4.47;2.33;;;;;;;17.82;57.65;101355.22;8349654;28;20033;-64
2023/05/18 18:20:25;;;;;;;11.80;2.60;;;;;;;17.73;58.05;101361.69;8349407;28;20040;-64
2023/05/18 18:24:26;;;;;;;10.13;2.55;;;;;;;17.67;58.16;101357.75;8348904;28;20960;-63
2023/05/18 18:28:28;;;;;;;7.07;1.80;;;;;;;17.58;58.56;101356.00;8349064;28;20513;-64
2023/05/18 18:32:28;;;;;;;12.82;2.20;;;;;;;17.56;59.04;101361.63;8349123;28;20040;-63
2023/05/18 18:36:28;;;;;;;9.80;2.20;;;;;;;17.53;58.75;101369.31;8340300;28;20112;-63
2023/05/18 18:40:29;;;;;;;6.50;2.08;;;;;;;17.47;58.79;101376.28;8342096;28;20044;-64
2023/05/18 18:44:29;;;;;;;11.50;2.25;;;;;;;17.41;58.86;101373.31;8333783;28;20317;-64